Captain Ed — WDF6338 — position and weather

sailwx.info

Track history (hours):
 
Tides and Currents Weather Stations Pressure Air Temp Water Temp Dewpoint Dewpoint Depression Visibility Wind Speed Wind Dir Waves Ship Positions

Captain Ed

Owner: Norfolk Dredging Company, Chesapeake, VA. More information available from US FCC via Universal Licensing System and Coast Guard Vessel Documentation Center.

Last reported at 2014-Dec-21 02:17 UTC. Time now 2014-Dec-21 02:37 UTC.
Position N 39°08' W 076°24'.

Length 22 m; draft 3 m.

Type: Tug. MMSI: 367473210.

Date/timePositionNaut miles runAvg speedWind from/ knotsBaromVisibWave heightAir tempDewpointWater temp
2014-Dec-21 02:17N 39°08' W 076°24'0 0.2
2014-Dec-21 01:34N 39°08' W 076°24'0 0.3
2014-Dec-21 00:33N 39°08' W 076°24'0 0.3
2014-Dec-20 23:32N 39°08' W 076°24'0 0.2
2014-Dec-20 22:10N 39°08' W 076°24'0 0.5
2014-Dec-20 21:32N 39°08' W 076°24'1 0.7
2014-Dec-20 20:25N 39°07' W 076°24'1 0.6
2014-Dec-20 19:32N 39°08' W 076°24'0 0.3
2014-Dec-20 18:30N 39°08' W 076°24'0 0.2
2014-Dec-20 17:31N 39°08' W 076°24'0 0.3
2014-Dec-20 16:33N 39°08' W 076°24'0 0.0
2014-Dec-20 15:27N 39°08' W 076°24'0 0.0
2014-Dec-20 14:32N 39°08' W 076°24'0 0.0
2014-Dec-20 13:34N 39°08' W 076°24'0 0.0
2014-Dec-20 12:34N 39°08' W 076°24'1 1.0
2014-Dec-20 11:32N 39°09' W 076°24'1 0.7
2014-Dec-20 10:10N 39°08' W 076°24'0 0.1
2014-Dec-20 09:34N 39°08' W 076°24'0 0.0
2014-Dec-20 04:23N 39°08' W 076°24'0 0.1
2014-Dec-20 03:23N 39°08' W 076°24'0 0.0
2014-Dec-20 02:31N 39°08' W 076°24'0 0.5
2014-Dec-20 01:32N 39°08' W 076°24'0 0.0
2014-Dec-20 00:28N 39°08' W 076°24'1 0.2
2014-Dec-19 21:12N 39°08' W 076°24'1 0.6
2014-Dec-19 20:19N 39°07' W 076°24'1 0.1
2014-Dec-18 21:33N 39°08' W 076°24'0 0.1
2014-Dec-18 20:26N 39°08' W 076°24'0 0.0
2014-Dec-18 11:10N 39°09' W 076°24'0 0.3
2014-Dec-18 10:31N 39°09' W 076°24'0 0.4
2014-Dec-18 09:20N 39°08' W 076°24'0 0.0
2014-Dec-18 08:31N 39°08' W 076°24'0 0.1
2014-Dec-18 05:31N 39°08' W 076°24'0 0.0
2014-Dec-18 00:32N 39°08' W 076°24'0 0.0
2014-Dec-17 19:28N 39°08' W 076°24'1 0.2
2014-Dec-17 14:25N 39°09' W 076°24'1 0.6
2014-Dec-17 12:23N 39°08' W 076°24'1 0.2
2014-Dec-17 08:30N 39°08' W 076°24'0 0.4
2014-Dec-17 07:32N 39°09' W 076°24'1 0.5
2014-Dec-17 06:25N 39°08' W 076°24'0 0.3
2014-Dec-17 05:08N 39°08' W 076°24'0 0.3
2014-Dec-17 04:33N 39°08' W 076°24'5 0.5
2014-Dec-16 17:11N 39°03' W 076°23'5 7.3
2014-Dec-16 16:27N 39°08' W 076°24'6 3.4
2014-Dec-16 14:33N 39°12' W 076°31'4 3.5
2014-Dec-16 13:33N 39°15' W 076°34'0 0.0
2014-Dec-16 12:31N 39°15' W 076°34'4 3.9
2014-Dec-16 11:33N 39°12' W 076°31'6 4.6
2014-Dec-16 10:12N 39°09' W 076°24'0 0.1
2014-Dec-16 06:33N 39°09' W 076°24'1 0.5
2014-Dec-16 05:22N 39°08' W 076°24'8 8.5
2014-Dec-16 04:24N 39°00' W 076°23'4 1.0
2014-Dec-16 00:31N 38°57' W 076°23'10 9.7
2014-Dec-15 23:27N 39°07' W 076°24'2 1.3
2014-Dec-15 22:11N 39°09' W 076°24'0 0.1
2014-Dec-15 20:28N 39°09' W 076°24'0 0.1
2014-Dec-15 17:16N 39°09' W 076°25'0 0.4
2014-Dec-15 16:26N 39°09' W 076°24'1 0.7
2014-Dec-15 15:19N 39°08' W 076°24'0 0.1
2014-Dec-15 13:33N 39°08' W 076°24'1 0.8
2014-Dec-15 12:33N 39°09' W 076°24'1 0.5
2014-Dec-15 11:19N 39°08' W 076°24'0 0.2
2014-Dec-15 10:12N 39°08' W 076°24'0 0.7
2014-Dec-15 09:31N 39°07' W 076°24'8 7.5
2014-Dec-15 08:29N 38°60' W 076°23'9 7.8
2014-Dec-15 07:19N 38°51' W 076°25'10 2.3
2014-Dec-15 03:14N 39°00' W 076°23'8 4.5
2014-Dec-15 01:30N 39°08' W 076°24'1 0.2
2014-Dec-14 21:31N 39°09' W 076°25'7 7.4
2014-Dec-14 20:33N 39°13' W 076°32'2 1.8
2014-Dec-14 19:33N 39°14' W 076°34'0 0.0
2014-Dec-14 18:33N 39°14' W 076°34'0 0.0
2014-Dec-14 17:33N 39°14' W 076°34'0 0.0
2014-Dec-14 16:33N 39°14' W 076°34'0 0.3
2014-Dec-14 15:34N 39°13' W 076°34'0 0.1
2014-Dec-14 14:33N 39°13' W 076°34'0 0.1
2014-Dec-14 13:34N 39°13' W 076°34'0 0.2
2014-Dec-14 12:32N 39°13' W 076°33'9 4.4
2014-Dec-14 10:32N 39°08' W 076°24'1 0.5
2014-Dec-14 09:25N 39°08' W 076°24'0 0.0
2014-Dec-14 08:29N 39°08' W 076°24'0 0.1
2014-Dec-14 07:27N 39°08' W 076°24'1 0.6
2014-Dec-14 06:14N 39°08' W 076°24'1 1.5
2014-Dec-14 05:29N 39°07' W 076°24'7 8.0
2014-Dec-14 04:34N 38°60' W 076°23'3 0.8
2014-Dec-14 00:33N 38°56' W 076°23'10 9.6
2014-Dec-13 23:31N 39°06' W 076°24'1 0.1
2014-Dec-13 13:13N 39°08' W 076°24'0 0.0
2014-Dec-13 12:15N 39°08' W 076°24'0 0.2
2014-Dec-13 11:23N 39°08' W 076°24'0 0.2
2014-Dec-13 10:33N 39°08' W 076°24'0 0.0
2014-Dec-13 07:31N 39°08' W 076°24'0 0.0
2014-Dec-13 04:32N 39°08' W 076°24'0 0.2
2014-Dec-13 03:30N 39°08' W 076°24'0 0.2
2014-Dec-13 02:24N 39°08' W 076°24'0 0.1
2014-Dec-13 01:10N 39°08' W 076°24'0 0.2
2014-Dec-12 22:31N 39°07' W 076°24'0 0.4
2014-Dec-12 21:30N 39°08' W 076°24'0 0.2
2014-Dec-12 20:16N 39°08' W 076°24'0 0.1
2014-Dec-12 14:33N 39°07' W 076°24'0 0.3
2014-Dec-12 13:30N 39°08' W 076°24'0 0.1
2014-Dec-12 12:19N 39°08' W 076°24'0 0.1
2014-Dec-12 09:16N 39°08' W 076°24'0 0.4
2014-Dec-12 08:31N 39°08' W 076°24'0 0.1
2014-Dec-12 05:07N 39°07' W 076°24'0 0.0
2014-Dec-12 04:17N 39°07' W 076°24'0 0.0
2014-Dec-12 03:25N 39°07' W 076°24'0 0.0
2014-Dec-12 02:29N 39°07' W 076°24'0 0.0
2014-Dec-12 01:30N 39°07' W 076°24'0 0.0
2014-Dec-12 00:10N 39°07' W 076°24'0 0.4
2014-Dec-11 23:17N 39°08' W 076°24'0 0.0
2014-Dec-11 22:27N 39°08' W 076°24'0 0.2
2014-Dec-11 20:31N 39°07' W 076°24'0 0.0
2014-Dec-11 19:25N 39°07' W 076°24'0 0.1
2014-Dec-11 18:29N 39°07' W 076°24'0 0.0
2014-Dec-11 16:19N 39°07' W 076°24'0 0.1
2014-Dec-11 15:23N 39°07' W 076°24'0 0.1
2014-Dec-11 14:21N 39°07' W 076°24'0 0.0
2014-Dec-11 13:25N 39°07' W 076°24'0 0.1
2014-Dec-11 12:19N 39°07' W 076°24'0 0.1
2014-Dec-11 10:26N 39°07' W 076°24'1 0.6
2014-Dec-11 09:33N 39°08' W 076°24'0 0.0
2014-Dec-11 04:19N 39°08' W 076°24'0 0.5
2014-Dec-11 03:32N 39°07' W 076°24'  
Track history (hours):
 
Tides and Currents Weather Stations Pressure Air Temp Water Temp Dewpoint Dewpoint Depression Visibility Wind Speed Wind Dir Waves Ship Positions

Captain Ed

Owner: Norfolk Dredging Company, Chesapeake, VA. More information available from US FCC via Universal Licensing System and Coast Guard Vessel Documentation Center.

Last reported at 2014-Dec-21 02:17 UTC. Time now 2014-Dec-21 02:37 UTC.
Position N 39°08' W 076°24'.

Length 22 m; draft 3 m.

Type: Tug. MMSI: 367473210.

Date/timePositionNaut miles runAvg speedWind from/ knotsBaromVisibWave heightAir tempDewpointWater temp
2014-Dec-21 02:17N 39°08' W 076°24'0 0.2
2014-Dec-21 01:34N 39°08' W 076°24'0 0.3
2014-Dec-21 00:33N 39°08' W 076°24'0 0.3
2014-Dec-20 23:32N 39°08' W 076°24'0 0.2
2014-Dec-20 22:10N 39°08' W 076°24'0 0.5
2014-Dec-20 21:32N 39°08' W 076°24'1 0.7
2014-Dec-20 20:25N 39°07' W 076°24'1 0.6
2014-Dec-20 19:32N 39°08' W 076°24'0 0.3
2014-Dec-20 18:30N 39°08' W 076°24'0 0.2
2014-Dec-20 17:31N 39°08' W 076°24'0 0.3
2014-Dec-20 16:33N 39°08' W 076°24'0 0.0
2014-Dec-20 15:27N 39°08' W 076°24'0 0.0
2014-Dec-20 14:32N 39°08' W 076°24'0 0.0
2014-Dec-20 13:34N 39°08' W 076°24'0 0.0
2014-Dec-20 12:34N 39°08' W 076°24'1 1.0
2014-Dec-20 11:32N 39°09' W 076°24'1 0.7
2014-Dec-20 10:10N 39°08' W 076°24'0 0.1
2014-Dec-20 09:34N 39°08' W 076°24'0 0.0
2014-Dec-20 04:23N 39°08' W 076°24'0 0.1
2014-Dec-20 03:23N 39°08' W 076°24'0 0.0
2014-Dec-20 02:31N 39°08' W 076°24'0 0.5
2014-Dec-20 01:32N 39°08' W 076°24'0 0.0
2014-Dec-20 00:28N 39°08' W 076°24'1 0.2
2014-Dec-19 21:12N 39°08' W 076°24'1 0.6
2014-Dec-19 20:19N 39°07' W 076°24'1 0.1
2014-Dec-18 21:33N 39°08' W 076°24'0 0.1
2014-Dec-18 20:26N 39°08' W 076°24'0 0.0
2014-Dec-18 11:10N 39°09' W 076°24'0 0.3
2014-Dec-18 10:31N 39°09' W 076°24'0 0.4
2014-Dec-18 09:20N 39°08' W 076°24'0 0.0
2014-Dec-18 08:31N 39°08' W 076°24'0 0.1
2014-Dec-18 05:31N 39°08' W 076°24'0 0.0
2014-Dec-18 00:32N 39°08' W 076°24'0 0.0
2014-Dec-17 19:28N 39°08' W 076°24'1 0.2
2014-Dec-17 14:25N 39°09' W 076°24'1 0.6
2014-Dec-17 12:23N 39°08' W 076°24'1 0.2
2014-Dec-17 08:30N 39°08' W 076°24'0 0.4
2014-Dec-17 07:32N 39°09' W 076°24'1 0.5
2014-Dec-17 06:25N 39°08' W 076°24'0 0.3
2014-Dec-17 05:08N 39°08' W 076°24'0 0.3
2014-Dec-17 04:33N 39°08' W 076°24'5 0.5
2014-Dec-16 17:11N 39°03' W 076°23'5 7.3
2014-Dec-16 16:27N 39°08' W 076°24'6 3.4
2014-Dec-16 14:33N 39°12' W 076°31'4 3.5
2014-Dec-16 13:33N 39°15' W 076°34'0 0.0
2014-Dec-16 12:31N 39°15' W 076°34'4 3.9
2014-Dec-16 11:33N 39°12' W 076°31'6 4.6
2014-Dec-16 10:12N 39°09' W 076°24'0 0.1
2014-Dec-16 06:33N 39°09' W 076°24'1 0.5
2014-Dec-16 05:22N 39°08' W 076°24'8 8.5
2014-Dec-16 04:24N 39°00' W 076°23'4 1.0
2014-Dec-16 00:31N 38°57' W 076°23'10 9.7
2014-Dec-15 23:27N 39°07' W 076°24'2 1.3
2014-Dec-15 22:11N 39°09' W 076°24'0 0.1
2014-Dec-15 20:28N 39°09' W 076°24'0 0.1
2014-Dec-15 17:16N 39°09' W 076°25'0 0.4
2014-Dec-15 16:26N 39°09' W 076°24'1 0.7
2014-Dec-15 15:19N 39°08' W 076°24'0 0.1
2014-Dec-15 13:33N 39°08' W 076°24'1 0.8
2014-Dec-15 12:33N 39°09' W 076°24'1 0.5
2014-Dec-15 11:19N 39°08' W 076°24'0 0.2
2014-Dec-15 10:12N 39°08' W 076°24'0 0.7
2014-Dec-15 09:31N 39°07' W 076°24'8 7.5
2014-Dec-15 08:29N 38°60' W 076°23'9 7.8
2014-Dec-15 07:19N 38°51' W 076°25'10 2.3
2014-Dec-15 03:14N 39°00' W 076°23'8 4.5
2014-Dec-15 01:30N 39°08' W 076°24'1 0.2
2014-Dec-14 21:31N 39°09' W 076°25'7 7.4
2014-Dec-14 20:33N 39°13' W 076°32'2 1.8
2014-Dec-14 19:33N 39°14' W 076°34'0 0.0
2014-Dec-14 18:33N 39°14' W 076°34'0 0.0
2014-Dec-14 17:33N 39°14' W 076°34'0 0.0
2014-Dec-14 16:33N 39°14' W 076°34'0 0.3
2014-Dec-14 15:34N 39°13' W 076°34'0 0.1
2014-Dec-14 14:33N 39°13' W 076°34'0 0.1
2014-Dec-14 13:34N 39°13' W 076°34'0 0.2
2014-Dec-14 12:32N 39°13' W 076°33'9 4.4
2014-Dec-14 10:32N 39°08' W 076°24'1 0.5
2014-Dec-14 09:25N 39°08' W 076°24'0 0.0
2014-Dec-14 08:29N 39°08' W 076°24'0 0.1
2014-Dec-14 07:27N 39°08' W 076°24'1 0.6
2014-Dec-14 06:14N 39°08' W 076°24'1 1.5
2014-Dec-14 05:29N 39°07' W 076°24'7 8.0
2014-Dec-14 04:34N 38°60' W 076°23'3 0.8
2014-Dec-14 00:33N 38°56' W 076°23'10 9.6
2014-Dec-13 23:31N 39°06' W 076°24'1 0.1
2014-Dec-13 13:13N 39°08' W 076°24'0 0.0
2014-Dec-13 12:15N 39°08' W 076°24'0 0.2
2014-Dec-13 11:23N 39°08' W 076°24'0 0.2
2014-Dec-13 10:33N 39°08' W 076°24'0 0.0
2014-Dec-13 07:31N 39°08' W 076°24'0 0.0
2014-Dec-13 04:32N 39°08' W 076°24'0 0.2
2014-Dec-13 03:30N 39°08' W 076°24'0 0.2
2014-Dec-13 02:24N 39°08' W 076°24'0 0.1
2014-Dec-13 01:10N 39°08' W 076°24'0 0.2
2014-Dec-12 22:31N 39°07' W 076°24'0 0.4
2014-Dec-12 21:30N 39°08' W 076°24'0 0.2
2014-Dec-12 20:16N 39°08' W 076°24'0 0.1
2014-Dec-12 14:33N 39°07' W 076°24'0 0.3
2014-Dec-12 13:30N 39°08' W 076°24'0 0.1
2014-Dec-12 12:19N 39°08' W 076°24'0 0.1
2014-Dec-12 09:16N 39°08' W 076°24'0 0.4
2014-Dec-12 08:31N 39°08' W 076°24'0 0.1
2014-Dec-12 05:07N 39°07' W 076°24'0 0.0
2014-Dec-12 04:17N 39°07' W 076°24'0 0.0
2014-Dec-12 03:25N 39°07' W 076°24'0 0.0
2014-Dec-12 02:29N 39°07' W 076°24'0 0.0
2014-Dec-12 01:30N 39°07' W 076°24'0 0.0
2014-Dec-12 00:10N 39°07' W 076°24'0 0.4
2014-Dec-11 23:17N 39°08' W 076°24'0 0.0
2014-Dec-11 22:27N 39°08' W 076°24'0 0.2
2014-Dec-11 20:31N 39°07' W 076°24'0 0.0
2014-Dec-11 19:25N 39°07' W 076°24'0 0.1
2014-Dec-11 18:29N 39°07' W 076°24'0 0.0
2014-Dec-11 16:19N 39°07' W 076°24'0 0.1
2014-Dec-11 15:23N 39°07' W 076°24'0 0.1
2014-Dec-11 14:21N 39°07' W 076°24'0 0.0
2014-Dec-11 13:25N 39°07' W 076°24'0 0.1
2014-Dec-11 12:19N 39°07' W 076°24'0 0.1
2014-Dec-11 10:26N 39°07' W 076°24'1 0.6
2014-Dec-11 09:33N 39°08' W 076°24'0 0.0
2014-Dec-11 04:19N 39°08' W 076°24'0 0.5
2014-Dec-11 03:32N 39°07' W 076°24'  

Dump ship's entire track history